Time;durP1;ratioP1;P1;durP2;ratioP2;P2;SDS_P1;SDS_P2;PMS_P1;PMS_P2;Temp;Humidity;BMP_temperature;BMP_pressure;BME280_temperature;BME280_humidity;BME280_pressure;Samples;Min_cycle;Max_cycle;Signal;HPM_P1;HPM_P2
2021/06/26 00:01:32;;;;;;;3.58;3.28;;;14.20;99.90;;;;;;4903699;29;20052;-83
2021/06/26 00:04:03;;;;;;;3.38;2.95;;;14.10;99.90;;;;;;4874394;29;20056;-83
2021/06/26 00:06:33;;;;;;;3.00;2.70;;;14.10;99.90;;;;;;4882654;29;20045;-83
2021/06/26 00:09:02;;;;;;;10.13;3.60;;;14.10;99.90;;;;;;4886399;29;20051;-83
2021/06/26 00:11:31;;;;;;;3.58;3.28;;;14.10;99.90;;;;;;4873678;29;20063;-83
2021/06/26 00:14:02;;;;;;;2.90;2.70;;;14.10;99.90;;;;;;4887538;29;20394;-83
2021/06/26 00:16:31;;;;;;;6.13;2.67;;;14.00;99.90;;;;;;4872557;29;20052;-83
2021/06/26 00:18:59;;;;;;;2.70;2.30;;;14.10;99.90;;;;;;4892396;29;20063;-83
2021/06/26 00:21:28;;;;;;;4.30;4.00;;;14.00;99.90;;;;;;4871118;29;20044;-83
2021/06/26 00:23:56;;;;;;;5.43;4.00;;;13.90;99.90;;;;;;4892382;29;20051;-82
2021/06/26 00:26:26;;;;;;;3.63;2.80;;;13.90;99.90;;;;;;4906124;29;20047;-80
2021/06/26 00:29:00;;;;;;;3.38;3.03;;;13.90;99.90;;;;;;4892607;29;20212;-80
2021/06/26 00:31:28;;;;;;;3.70;3.20;;;13.80;99.90;;;;;;4923078;29;20056;-80
2021/06/26 00:33:56;;;;;;;2.72;2.50;;;13.80;99.90;;;;;;4908018;29;20059;-80
2021/06/26 00:36:24;;;;;;;4.07;3.75;;;13.80;99.90;;;;;;4905394;29;20052;-80
2021/06/26 00:38:52;;;;;;;3.50;3.20;;;13.70;99.90;;;;;;4906970;29;20056;-80
2021/06/26 00:41:20;;;;;;;2.70;2.50;;;13.70;99.90;;;;;;4922586;29;20486;-80
2021/06/26 00:44:01;;;;;;;4.47;3.60;;;13.70;99.90;;;;;;4923130;29;20044;-80
2021/06/26 00:46:29;;;;;;;3.55;3.22;;;13.60;99.90;;;;;;4891458;29;20056;-80
2021/06/26 00:48:57;;;;;;;6.22;3.55;;;13.60;99.90;;;;;;4921443;29;20059;-80
2021/06/26 00:51:25;;;;;;;4.80;2.47;;;13.50;99.90;;;;;;4922937;29;20533;-80
2021/06/26 00:53:54;;;;;;;2.60;2.40;;;13.50;99.90;;;;;;4906858;29;20055;-80
2021/06/26 00:56:22;;;;;;;3.10;2.60;;;13.40;99.90;;;;;;4903007;29;20048;-80
2021/06/26 01:03:32;;;;;;;2.80;2.53;;;13.30;99.90;;;;;;1237767;27;20389;-86
2021/06/26 01:06:00;;;;;;;3.70;2.63;;;13.20;99.90;;;;;;4866351;29;20049;-85
2021/06/26 01:08:28;;;;;;;5.07;3.15;;;13.20;99.90;;;;;;4849023;29;20049;-85
2021/06/26 01:10:57;;;;;;;5.50;4.50;;;13.20;99.90;;;;;;4849237;29;20061;-84
2021/06/26 01:13:25;;;;;;;3.28;2.97;;;13.20;99.90;;;;;;4867891;29;20049;-85
2021/06/26 01:15:53;;;;;;;4.25;3.25;;;13.20;99.90;;;;;;4851266;29;20513;-84
2021/06/26 01:18:21;;;;;;;4.40;3.60;;;13.20;99.90;;;;;;4849018;29;20037;-85
2021/06/26 01:20:49;;;;;;;7.97;3.05;;;13.20;99.90;;;;;;4865931;29;20072;-85
2021/06/26 01:23:18;;;;;;;5.55;4.15;;;13.20;99.90;;;;;;4832815;29;20459;-84
2021/06/26 01:25:46;;;;;;;4.93;3.65;;;13.20;99.90;;;;;;4867079;29;20627;-86
2021/06/26 01:28:14;;;;;;;5.57;3.47;;;13.20;99.90;;;;;;4868514;29;20064;-86
2021/06/26 01:30:42;;;;;;;3.47;2.78;;;13.20;99.90;;;;;;4863170;29;20064;-86
2021/06/26 01:33:10;;;;;;;4.57;2.65;;;13.20;99.90;;;;;;4866543;29;20041;-86
2021/06/26 01:39:42;;;;;;;4.18;3.63;;;12.90;99.90;;;;;;4866082;29;20057;-86
2021/06/26 01:42:10;;;;;;;3.35;3.05;;;12.60;99.90;;;;;;4849847;29;20068;-86
2021/06/26 01:44:38;;;;;;;2.45;2.17;;;12.70;99.90;;;;;;4848494;29;20049;-86
2021/06/26 01:47:07;;;;;;;5.00;3.50;;;12.60;99.90;;;;;;4850792;29;20049;-86
2021/06/26 01:49:39;;;;;;;9.75;3.72;;;12.50;99.90;;;;;;4847718;29;20064;-87
2021/06/26 01:52:09;;;;;;;4.60;3.22;;;12.50;99.90;;;;;;4830223;29;20054;-84
2021/06/26 01:54:38;;;;;;;3.70;3.38;;;12.50;99.90;;;;;;4863745;29;20128;-85
2021/06/26 01:57:08;;;;;;;5.15;3.55;;;12.50;99.90;;;;;;4851289;29;20470;-85
2021/06/26 01:59:38;;;;;;;3.90;2.80;;;12.40;99.90;;;;;;4865848;29;20056;-86
2021/06/26 02:02:07;;;;;;;4.82;3.65;;;12.40;99.90;;;;;;4832883;29;20045;-85
2021/06/26 02:04:35;;;;;;;3.45;2.85;;;12.40;99.90;;;;;;4842329;29;20491;-85
2021/06/26 02:07:03;;;;;;;4.28;3.88;;;12.40;99.90;;;;;;4861832;29;20487;-83
2021/06/26 02:09:30;;;;;;;4.35;3.95;;;12.40;99.90;;;;;;4865120;29;20403;-85
2021/06/26 02:11:58;;;;;;;4.75;3.72;;;12.40;99.90;;;;;;4850214;29;20072;-85
2021/06/26 02:14:26;;;;;;;4.63;3.63;;;12.40;99.90;;;;;;4867166;29;20049;-86
2021/06/26 02:16:54;;;;;;;5.53;3.75;;;12.30;99.90;;;;;;4883837;29;20045;-86
2021/06/26 02:19:22;;;;;;;5.13;4.63;;;12.40;99.90;;;;;;4869175;29;20426;-86
2021/06/26 02:21:50;;;;;;;5.53;4.63;;;12.40;99.90;;;;;;4834030;29;20052;-85
2021/06/26 02:24:18;;;;;;;4.00;3.58;;;12.40;99.90;;;;;;4868514;29;20056;-85
2021/06/26 02:26:46;;;;;;;4.50;3.50;;;12.40;99.90;;;;;;4851039;29;20676;-85
2021/06/26 02:29:14;;;;;;;5.15;3.97;;;12.40;99.90;;;;;;4850017;29;20045;-85
2021/06/26 02:31:41;;;;;;;7.50;5.32;;;12.30;99.90;;;;;;4866540;29;20049;-86
2021/06/26 02:34:13;;;;;;;5.28;4.78;;;12.30;99.90;;;;;;4850468;29;20037;-86
2021/06/26 02:36:41;;;;;;;8.05;7.25;;;12.40;99.90;;;;;;4880849;29;20061;-85
2021/06/26 02:39:08;;;;;;;10.38;6.82;;;12.50;99.90;;;;;;4866482;29;20057;-86
2021/06/26 02:41:36;;;;;;;7.25;5.72;;;12.40;99.90;;;;;;4849216;29;20057;-85
2021/06/26 02:44:04;;;;;;;4.82;3.45;;;12.40;99.90;;;;;;4835081;29;20049;-86
2021/06/26 02:46:32;;;;;;;4.70;3.58;;;12.30;99.90;;;;;;4849793;29;20076;-86
2021/06/26 02:49:00;;;;;;;7.28;4.30;;;12.30;99.90;;;;;;4851372;29;20048;-85
2021/06/26 02:51:28;;;;;;;5.00;4.13;;;12.30;99.90;;;;;;4850137;29;20558;-85
2021/06/26 02:53:57;;;;;;;5.72;3.83;;;12.30;99.90;;;;;;4848286;29;20068;-86
2021/06/26 02:56:25;;;;;;;6.00;4.03;;;12.20;99.90;;;;;;4848560;29;20053;-86
2021/06/26 02:58:52;;;;;;;7.75;4.57;;;12.30;99.90;;;;;;4865384;29;20537;-85
2021/06/26 03:01:20;;;;;;;6.40;3.40;;;12.20;99.90;;;;;;4865790;29;20045;-85
2021/06/26 03:03:48;;;;;;;6.20;4.50;;;12.10;99.90;;;;;;4866314;29;20065;-85
2021/06/26 03:06:16;;;;;;;5.47;4.53;;;12.10;99.90;;;;;;4849569;29;20495;-85
2021/06/26 03:08:44;;;;;;;6.55;3.47;;;12.10;99.90;;;;;;4867337;29;20038;-85
2021/06/26 03:11:12;;;;;;;6.00;4.68;;;12.10;99.90;;;;;;4868083;29;20053;-85
2021/06/26 03:13:39;;;;;;;6.72;5.10;;;12.10;99.90;;;;;;4869243;29;20049;-85
2021/06/26 03:16:07;;;;;;;11.68;7.18;;;12.20;99.90;;;;;;4871951;29;20521;-85
2021/06/26 03:18:36;;;;;;;6.75;4.45;;;12.30;99.90;;;;;;4852846;29;20049;-85
2021/06/26 03:21:05;;;;;;;11.65;4.88;;;12.30;99.90;;;;;;4854881;29;20424;-85
2021/06/26 03:23:33;;;;;;;7.93;5.00;;;12.30;99.90;;;;;;4869462;29;20510;-85
2021/06/26 03:26:01;;;;;;;6.85;5.10;;;12.20;99.90;;;;;;4854840;29;20491;-84
2021/06/26 03:28:29;;;;;;;13.45;5.78;;;12.20;99.90;;;;;;4870268;29;20095;-85
2021/06/26 03:30:56;;;;;;;10.10;4.80;;;12.20;99.90;;;;;;4869836;29;20049;-85
2021/06/26 03:33:24;;;;;;;3.33;2.85;;;12.10;99.90;;;;;;4869279;29;20053;-85
2021/06/26 03:35:52;;;;;;;4.22;3.13;;;11.90;99.90;;;;;;4872264;29;20057;-85
2021/06/26 03:38:20;;;;;;;7.07;4.47;;;11.90;99.90;;;;;;4869060;29;20049;-84
2021/06/26 03:40:49;;;;;;;7.20;4.57;;;11.90;99.90;;;;;;4868447;29;20088;-85
2021/06/26 03:43:17;;;;;;;5.68;4.30;;;11.90;99.90;;;;;;4871653;29;20155;-85
2021/06/26 03:45:45;;;;;;;7.57;5.28;;;11.90;99.90;;;;;;4869508;29;20522;-85
2021/06/26 03:48:13;;;;;;;6.97;5.53;;;12.00;99.90;;;;;;4869911;29;20056;-85
2021/06/26 03:50:41;;;;;;;7.35;4.78;;;12.00;99.90;;;;;;4870591;29;20057;-85
2021/06/26 03:53:10;;;;;;;7.55;6.25;;;12.00;99.90;;;;;;4869326;29;20053;-85
2021/06/26 03:55:38;;;;;;;7.38;4.35;;;12.00;99.90;;;;;;4852378;29;20057;-85
2021/06/26 03:58:06;;;;;;;6.55;5.35;;;12.00;99.90;;;;;;4853939;29;20056;-85
2021/06/26 04:00:34;;;;;;;12.43;5.72;;;12.00;99.90;;;;;;4870264;29;20500;-84
2021/06/26 04:03:02;;;;;;;8.13;5.15;;;12.00;99.90;;;;;;4867550;29;20076;-85
2021/06/26 04:05:30;;;;;;;9.40;4.50;;;12.10;99.90;;;;;;4871368;29;20058;-85
2021/06/26 04:07:58;;;;;;;6.68;4.57;;;12.10;99.90;;;;;;4870780;29;20063;-85
2021/06/26 04:10:27;;;;;;;7.63;5.38;;;12.10;99.90;;;;;;4869158;29;20049;-85
2021/06/26 04:12:55;;;;;;;5.30;4.45;;;12.10;99.90;;;;;;4852529;29;20041;-85
2021/06/26 04:15:23;;;;;;;43.75;11.85;;;12.10;99.90;;;;;;4850371;29;20081;-84
2021/06/26 04:17:51;;;;;;;5.90;5.38;;;12.10;99.90;;;;;;4870335;29;20049;-84
2021/06/26 04:20:19;;;;;;;6.25;4.03;;;12.00;99.90;;;;;;4867329;29;20510;-84
2021/06/26 04:22:47;;;;;;;3.88;3.50;;;11.90;99.90;;;;;;4868066;29;20060;-84
2021/06/26 04:25:17;;;;;;;4.85;3.42;;;11.90;99.90;;;;;;4870060;29;20053;-84
2021/06/26 04:27:45;;;;;;;8.90;5.90;;;12.00;99.90;;;;;;4870268;29;20049;-85
2021/06/26 04:30:14;;;;;;;6.78;5.97;;;12.20;99.90;;;;;;4869970;29;20053;-85
2021/06/26 04:32:42;;;;;;;7.20;6.47;;;12.30;99.90;;;;;;4870249;29;20403;-85
2021/06/26 04:35:13;;;;;;;9.18;5.72;;;12.30;99.90;;;;;;4867821;29;20059;-85
2021/06/26 04:37:41;;;;;;;6.75;6.13;;;12.40;99.90;;;;;;4852276;29;20057;-85
2021/06/26 04:40:09;;;;;;;7.22;5.18;;;12.40;99.90;;;;;;4869848;29;20056;-85
2021/06/26 04:42:37;;;;;;;7.13;5.18;;;12.40;99.90;;;;;;4853705;29;20065;-85
2021/06/26 04:45:06;;;;;;;5.82;4.47;;;12.50;99.90;;;;;;4867362;29;20407;-85
2021/06/26 04:47:34;;;;;;;6.70;4.35;;;12.60;99.90;;;;;;4868180;29;20049;-84
2021/06/26 04:50:02;;;;;;;6.88;4.30;;;12.80;99.90;;;;;;4853100;29;20054;-84
2021/06/26 04:52:30;;;;;;;6.80;6.15;;;12.90;99.90;;;;;;4851747;29;20084;-84
2021/06/26 04:55:00;;;;;;;6.43;5.38;;;12.90;99.90;;;;;;4867983;29;20045;-84
2021/06/26 04:57:28;;;;;;;6.05;5.13;;;12.90;99.90;;;;;;4852105;29;20049;-84
2021/06/26 04:59:56;;;;;;;9.88;5.95;;;13.00;99.90;;;;;;4867966;29;20542;-84
2021/06/26 05:02:24;;;;;;;6.20;5.57;;;13.10;99.90;;;;;;4865639;29;20045;-84
2021/06/26 05:04:52;;;;;;;7.30;6.65;;;13.20;99.90;;;;;;4867574;29;20410;-78
2021/06/26 05:07:20;;;;;;;6.88;5.15;;;13.30;99.90;;;;;;4869118;29;20064;-78
2021/06/26 05:09:48;;;;;;;8.18;6.18;;;13.30;99.90;;;;;;4868540;29;20507;-78
2021/06/26 05:12:16;;;;;;;7.55;6.78;;;13.40;99.90;;;;;;4868432;29;20056;-78
2021/06/26 05:14:44;;;;;;;8.15;5.80;;;13.60;99.90;;;;;;4864638;29;20053;-85
2021/06/26 05:17:12;;;;;;;8.40;6.47;;;13.80;99.90;;;;;;4868168;29;20041;-85
2021/06/26 05:19:40;;;;;;;8.52;6.95;;;13.90;99.90;;;;;;4870305;29;20060;-85
2021/06/26 05:22:36;;;;;;;7.15;5.60;;;14.00;99.90;;;;;;4840900;29;20064;-84
2021/06/26 06:37:16;;;;;;;10.38;7.47;;;16.60;99.90;;;;;;6233796;22;20024;-88
2021/06/26 06:43:29;;;;;;;12.23;7.63;;;16.90;99.90;;;;;;6230875;22;20020;-78
2021/06/26 06:45:57;;;;;;;7.70;6.75;;;17.10;99.90;;;;;;6211655;22;20032;-78
2021/06/26 06:48:24;;;;;;;7.38;5.72;;;17.10;99.90;;;;;;6218509;23;20023;-79
2021/06/26 06:50:52;;;;;;;9.23;6.50;;;17.20;99.90;;;;;;6229998;23;20016;-80
2021/06/26 06:53:21;;;;;;;10.68;7.20;;;17.20;99.90;;;;;;6197565;23;20518;-80
2021/06/26 06:55:53;;;;;;;7.00;5.65;;;17.30;99.90;;;;;;6214546;23;20649;-80
2021/06/26 06:58:21;;;;;;;12.35;6.35;;;17.30;99.90;;;;;;6209104;23;20029;-81
2021/06/26 07:01:52;;;;;;;6.32;5.13;;;17.40;99.90;;;;;;6202464;22;20364;-86
2021/06/26 07:28:26;;;;;;;7.63;5.03;;;18.80;99.90;;;;;;6185592;22;20021;-86
2021/06/26 07:32:50;;;;;;;6.32;5.45;;;20.00;99.90;;;;;;6049217;23;20052;-86
2021/06/26 07:37:32;;;;;;;;;;;;;;;;;;;;;
2021/06/26 07:41:48;;;;;;;4.85;3.92;;;21.10;99.90;;;;;;6080397;23;20017;-86
2021/06/26 07:44:24;;;;;;;;;;;20.70;99.90;;;;;;6054559;23;20045;-86
2021/06/26 07:48:28;;;;;;;4.28;3.63;;;20.10;99.90;;;;;;6016400;23;20345;-85
2021/06/26 07:51:00;;;;;;;4.35;3.95;;;20.30;99.90;;;;;;5984322;23;20038;-82
2021/06/26 07:54:35;;;;;;;5.28;4.28;;;20.00;99.90;;;;;;5978188;23;20028;-86
2021/06/26 07:59:03;;;;;;;4.57;3.42;;;20.00;99.90;;;;;;6012117;23;20024;-87
2021/06/26 08:01:50;;;;;;;4.47;4.05;;;20.20;99.90;;;;;;5939330;23;20023;-85
2021/06/26 08:04:26;;;;;;;5.57;4.45;;;20.30;99.90;;;;;;6005673;23;20030;-85
2021/06/26 08:07:03;;;;;;;3.38;3.08;;;20.20;99.90;;;;;;5993418;23;20436;-83
2021/06/26 08:14:02;;;;;;;4.82;3.55;;;20.20;99.90;;;;;;6083394;23;20039;-84
2021/06/26 08:16:48;;;;;;;3.20;2.85;;;20.20;99.90;;;;;;6113209;23;20025;-85
2021/06/26 08:19:17;;;;;;;5.32;3.70;;;20.10;99.90;;;;;;6125176;23;20017;-84
2021/06/26 08:21:53;;;;;;;3.05;2.45;;;20.00;99.90;;;;;;6117094;23;20104;-85
2021/06/26 08:28:39;;;;;;;3.92;3.50;;;20.10;99.90;;;;;;6061875;23;20030;-84
2021/06/26 08:31:21;;;;;;;;;;;;;;;;;;;;;
2021/06/26 08:34:14;;;;;;;4.22;3.53;;;20.10;99.90;;;;;;6033222;23;20706;-84
2021/06/26 08:38:36;;;;;;;3.15;2.40;;;20.20;99.90;;;;;;6023082;23;20304;-87
2021/06/26 08:41:42;;;;;;;4.05;3.63;;;20.10;99.90;;;;;;6072838;23;20040;-83
2021/06/26 08:44:29;;;;;;;5.18;3.58;;;20.20;99.90;;;;;;6154990;23;20120;-84
2021/06/26 08:47:00;;;;;;;4.97;3.50;;;20.20;99.90;;;;;;6100195;23;20036;-84
2021/06/26 08:49:53;;;;;;;4.35;3.85;;;20.20;99.90;;;;;;6115825;23;20480;-84
2021/06/26 08:52:22;;;;;;;4.40;3.20;;;20.20;99.90;;;;;;6154128;22;20013;-84
2021/06/26 08:55:46;;;;;;;3.65;3.33;;;20.30;99.90;;;;;;6136427;23;20028;-83
2021/06/26 08:58:39;;;;;;;3.20;2.78;;;20.30;99.90;;;;;;6141792;23;20021;-84
2021/06/26 09:06:32;;;;;;;3.92;3.33;;;20.40;99.90;;;;;;6153327;23;20052;-83
2021/06/26 09:20:27;;;;;;;2.97;2.42;;;20.60;99.90;;;;;;6177170;23;20343;-84
2021/06/26 09:23:34;;;;;;;4.25;3.30;;;20.40;99.90;;;;;;6132443;23;20012;-84
2021/06/26 09:27:02;;;;;;;2.58;2.35;;;20.50;99.90;;;;;;6063580;23;20022;-83
2021/06/26 09:44:09;;;;;;;2.60;2.17;;;20.70;99.90;;;;;;6077140;23;20013;-80
2021/06/26 09:46:48;;;;;;;3.65;3.00;;;20.70;99.90;;;;;;6146844;23;20053;-79
2021/06/26 09:49:30;;;;;;;5.32;2.40;;;20.80;99.90;;;;;;6125789;23;20041;-81
2021/06/26 09:52:04;;;;;;;3.63;3.00;;;20.80;99.90;;;;;;6100539;23;20029;-80
2021/06/26 09:54:33;;;;;;;2.88;2.60;;;20.90;99.90;;;;;;6124526;23;20021;-79
2021/06/26 09:57:13;;;;;;;3.20;2.80;;;20.80;99.90;;;;;;6157670;23;20348;-83
2021/06/26 09:59:43;;;;;;;3.25;2.78;;;20.80;99.90;;;;;;6159742;23;20018;-79
2021/06/26 10:02:24;;;;;;;3.67;3.30;;;21.00;99.90;;;;;;6125911;23;20029;-80
2021/06/26 10:05:33;;;;;;;4.35;2.65;;;21.10;99.90;;;;;;6150027;23;20021;-83
2021/06/26 10:08:09;;;;;;;3.33;3.03;;;21.00;99.90;;;;;;6114726;23;20021;-82
2021/06/26 10:10:39;;;;;;;3.65;2.28;;;21.00;99.90;;;;;;6122875;23;20032;-81
2021/06/26 10:13:12;;;;;;;2.97;2.70;;;21.10;99.90;;;;;;6100633;23;20464;-82
2021/06/26 10:16:02;;;;;;;3.85;2.97;;;21.10;99.90;;;;;;6128882;23;20028;-81
2021/06/26 10:18:31;;;;;;;4.32;2.80;;;21.20;99.90;;;;;;6124840;23;20021;-81
2021/06/26 10:21:01;;;;;;;3.22;1.88;;;21.20;99.90;;;;;;6152139;23;20021;-84
2021/06/26 10:23:36;;;;;;;3.33;2.78;;;21.10;99.90;;;;;;6125996;23;20021;-84
2021/06/26 10:26:08;;;;;;;2.60;2.25;;;21.20;99.90;;;;;;6150189;23;20036;-85
2021/06/26 10:28:53;;;;;;;2.90;2.03;;;21.20;99.90;;;;;;6132744;23;20441;-82
2021/06/26 10:31:40;;;;;;;2.40;2.20;;;21.30;99.90;;;;;;6122729;23;20064;-83
2021/06/26 10:34:16;;;;;;;1.92;1.80;;;21.40;99.90;;;;;;6157844;23;20026;-84
2021/06/26 10:36:56;;;;;;;3.03;2.47;;;21.60;99.90;;;;;;6142040;23;20029;-83
2021/06/26 10:39:27;;;;;;;5.53;3.35;;;21.70;99.90;;;;;;6129237;23;20033;-84
2021/06/26 10:42:05;;;;;;;;;;;21.80;99.90;;;;;;6080959;23;20041;-85
2021/06/26 10:44:51;;;;;;;2.95;2.75;;;21.80;99.90;;;;;;6130025;23;19916;-84
2021/06/26 10:47:33;;;;;;;3.15;2.85;;;21.80;99.90;;;;;;6131472;23;20041;-84
2021/06/26 10:50:12;;;;;;;10.82;3.10;;;21.60;99.90;;;;;;6124545;23;20026;-83
2021/06/26 10:52:52;;;;;;;2.35;2.15;;;21.60;99.90;;;;;;6128199;23;20036;-84
2021/06/26 10:55:35;;;;;;;2.53;2.33;;;21.60;99.90;;;;;;6132562;23;20021;-83
2021/06/26 10:58:05;;;;;;;2.90;2.70;;;21.40;99.90;;;;;;6100168;23;20377;-84
2021/06/26 11:00:37;;;;;;;2.80;2.33;;;21.40;99.90;;;;;;6123096;23;20029;-85
2021/06/26 11:03:06;;;;;;;3.10;2.85;;;21.60;99.90;;;;;;6132898;23;20026;-83
2021/06/26 11:05:36;;;;;;;3.53;2.15;;;21.70;99.90;;;;;;6126858;23;20231;-83
2021/06/26 11:08:15;;;;;;;4.35;3.28;;;21.80;99.90;;;;;;6130284;23;20028;-83
2021/06/26 11:10:57;;;;;;;3.33;3.03;;;22.00;99.90;;;;;;6121381;23;20030;-81
2021/06/26 11:13:27;;;;;;;3.78;3.42;;;22.20;99.90;;;;;;6127730;23;20037;-82
2021/06/26 11:16:04;;;;;;;4.63;3.25;;;22.20;99.90;;;;;;6107038;23;20041;-83
2021/06/26 11:18:33;;;;;;;3.80;3.00;;;22.00;99.90;;;;;;6122773;23;20026;-82
2021/06/26 11:21:02;;;;;;;3.78;3.30;;;21.60;99.90;;;;;;6127695;23;20357;-83
2021/06/26 11:23:30;;;;;;;7.32;3.03;;;21.60;99.90;;;;;;6104325;23;20437;-85
2021/06/26 11:26:01;;;;;;;2.85;2.63;;;21.80;99.90;;;;;;6072779;23;20029;-80
2021/06/26 11:28:29;;;;;;;5.13;2.92;;;21.90;99.90;;;;;;6096483;23;20018;-79
2021/06/26 11:31:00;;;;;;;3.03;2.78;;;22.00;99.90;;;;;;6096231;23;20029;-84
2021/06/26 11:33:35;;;;;;;3.38;3.08;;;21.90;99.90;;;;;;6095826;23;20038;-79
2021/06/26 11:36:09;;;;;;;2.88;2.67;;;21.70;99.90;;;;;;6131787;23;20038;-80
2021/06/26 11:38:37;;;;;;;2.67;2.45;;;21.70;99.90;;;;;;6119151;23;20030;-78
2021/06/26 11:41:10;;;;;;;2.85;2.60;;;21.70;99.90;;;;;;6131478;23;20034;-77
2021/06/26 11:43:48;;;;;;;3.50;3.20;;;21.90;99.90;;;;;;6162615;23;20025;-78
2021/06/26 11:46:16;;;;;;;4.05;2.60;;;22.10;99.90;;;;;;6152952;23;20036;-80
2021/06/26 11:48:50;;;;;;;3.38;2.72;;;22.10;99.90;;;;;;6125576;23;20025;-80
2021/06/26 11:51:18;;;;;;;4.28;3.05;;;22.20;99.90;;;;;;6149627;23;20029;-81
2021/06/26 11:53:48;;;;;;;8.38;2.97;;;22.30;99.90;;;;;;6153594;23;20477;-79
2021/06/26 11:56:16;;;;;;;2.88;2.67;;;22.30;99.90;;;;;;6126212;23;20030;-80
2021/06/26 11:58:53;;;;;;;2.90;2.70;;;22.30;99.90;;;;;;6124676;23;20033;-80
2021/06/26 12:01:27;;;;;;;2.80;2.53;;;22.50;99.90;;;;;;6156347;23;20032;-78
2021/06/26 12:04:02;;;;;;;3.17;2.92;;;22.40;99.90;;;;;;6161577;23;20295;-79
2021/06/26 12:06:34;;;;;;;3.40;2.60;;;22.20;99.90;;;;;;6151045;23;20360;-82
2021/06/26 12:09:05;;;;;;;3.38;3.05;;;22.20;98.70;;;;;;6157041;23;20018;-81
2021/06/26 12:11:38;;;;;;;3.08;2.70;;;22.10;99.90;;;;;;6160839;23;20026;-82
2021/06/26 12:14:06;;;;;;;3.63;3.33;;;22.20;99.90;;;;;;6125844;23;20353;-82
2021/06/26 12:16:36;;;;;;;3.13;2.83;;;22.30;99.90;;;;;;6160317;23;20025;-81
2021/06/26 12:19:07;;;;;;;2.78;2.58;;;22.30;99.90;;;;;;6125819;23;20017;-80
2021/06/26 12:21:46;;;;;;;3.08;2.88;;;22.30;99.90;;;;;;6154219;23;20424;-79
2021/06/26 12:24:37;;;;;;;3.88;2.78;;;22.20;99.90;;;;;;6160026;23;20021;-80
2021/06/26 12:27:05;;;;;;;4.60;4.25;;;22.20;99.90;;;;;;6136749;23;20025;-78
2021/06/26 12:29:33;;;;;;;2.47;2.28;;;22.40;99.90;;;;;;6156110;23;20353;-81
2021/06/26 12:32:03;;;;;;;3.65;3.35;;;22.50;99.90;;;;;;6160726;23;20021;-81
2021/06/26 12:34:31;;;;;;;3.45;3.15;;;22.50;99.90;;;;;;6152454;23;20040;-80
2021/06/26 12:37:00;;;;;;;3.30;3.00;;;22.50;99.90;;;;;;6132579;23;20445;-83
2021/06/26 12:39:33;;;;;;;5.30;3.55;;;22.50;99.90;;;;;;6102166;23;20017;-82
2021/06/26 12:42:12;;;;;;;5.40;4.53;;;22.60;99.90;;;;;;6154429;23;20029;-82
2021/06/26 12:44:55;;;;;;;3.10;2.53;;;22.60;99.90;;;;;;6113000;23;20024;-80
2021/06/26 12:47:23;;;;;;;3.15;2.42;;;22.60;99.90;;;;;;6062029;23;20023;-82
2021/06/26 12:50:01;;;;;;;3.38;2.95;;;22.50;98.90;;;;;;6062299;23;20034;-81
2021/06/26 12:52:29;;;;;;;4.25;2.92;;;22.40;99.10;;;;;;6037586;23;20019;-81
2021/06/26 12:54:57;;;;;;;3.10;2.90;;;22.50;99.90;;;;;;6038579;23;20030;-80
2021/06/26 12:57:35;;;;;;;2.70;2.50;;;22.50;99.90;;;;;;6067812;23;20404;-81
2021/06/26 13:00:20;;;;;;;3.35;2.63;;;22.40;97.60;;;;;;6071490;23;20462;-83
2021/06/26 13:02:48;;;;;;;3.83;2.53;;;22.40;98.20;;;;;;6061443;23;20022;-84
2021/06/26 13:05:22;;;;;;;3.30;2.83;;;22.40;99.50;;;;;;6038130;23;20035;-82
2021/06/26 13:08:06;;;;;;;4.97;2.80;;;22.50;99.80;;;;;;6037579;23;20030;-84
2021/06/26 13:10:34;;;;;;;6.10;2.95;;;22.60;99.90;;;;;;6061825;23;20037;-83
2021/06/26 13:13:03;;;;;;;2.78;2.47;;;22.70;99.90;;;;;;6068329;23;20394;-84
2021/06/26 13:15:31;;;;;;;7.70;2.72;;;22.70;99.90;;;;;;6061018;23;20018;-84
2021/06/26 13:17:59;;;;;;;3.33;3.03;;;22.80;99.90;;;;;;6059534;23;20023;-83
2021/06/26 13:20:27;;;;;;;2.28;2.08;;;22.90;99.90;;;;;;6070562;23;20023;-85
2021/06/26 13:22:55;;;;;;;1.95;1.77;;;23.00;99.90;;;;;;6070528;23;20058;-82
2021/06/26 13:25:23;;;;;;;3.45;3.00;;;22.90;99.90;;;;;;6140096;23;20032;-85
2021/06/26 13:27:51;;;;;;;2.88;2.53;;;22.90;99.30;;;;;;6162768;23;20018;-85
2021/06/26 13:30:23;;;;;;;2.92;2.45;;;22.80;98.80;;;;;;6126559;23;20030;-83
2021/06/26 13:32:56;;;;;;;2.72;2.45;;;22.70;99.90;;;;;;6159230;23;20022;-83
2021/06/26 13:35:25;;;;;;;4.40;3.58;;;22.70;99.90;;;;;;6162806;23;20018;-84
2021/06/26 13:37:53;;;;;;;2.88;2.67;;;22.80;99.90;;;;;;6154246;23;20614;-83
2021/06/26 13:40:22;;;;;;;3.17;2.88;;;22.90;99.90;;;;;;6150220;23;20017;-84
2021/06/26 13:43:00;;;;;;;3.17;2.40;;;22.90;99.80;;;;;;6153974;23;20029;-84
2021/06/26 13:45:30;;;;;;;3.78;2.80;;;22.90;99.90;;;;;;6125124;23;20017;-84
2021/06/26 13:47:59;;;;;;;2.67;2.47;;;22.90;99.70;;;;;;6125418;23;20022;-84
2021/06/26 13:50:27;;;;;;;3.20;2.65;;;22.90;99.40;;;;;;6124712;23;20036;-84
2021/06/26 13:52:58;;;;;;;2.28;2.08;;;23.00;99.90;;;;;;6123829;23;20018;-84
2021/06/26 13:55:26;;;;;;;;;;;23.10;99.90;;;;;;6151692;23;20014;-84
2021/06/26 13:57:55;;;;;;;2.83;2.63;;;23.20;99.90;;;;;;6154026;23;19920;-84
2021/06/26 14:00:23;;;;;;;2.42;2.13;;;23.10;98.30;;;;;;6161165;23;20077;-84
2021/06/26 14:02:58;;;;;;;4.18;2.53;;;23.20;99.50;;;;;;6162068;23;20024;-84
2021/06/26 14:05:31;;;;;;;2.67;2.47;;;23.10;99.90;;;;;;6101758;23;20018;-84
2021/06/26 14:07:59;;;;;;;2.55;2.28;;;23.10;98.60;;;;;;6126734;23;20033;-84
2021/06/26 14:10:29;;;;;;;3.03;2.83;;;23.10;97.20;;;;;;6127545;23;20457;-88
2021/06/26 14:12:57;;;;;;;;;;;23.10;98.60;;;;;;6102923;23;20022;-86
2021/06/26 14:15:26;;;;;;;2.60;2.38;;;23.10;98.90;;;;;;6153145;23;19923;-86
2021/06/26 14:17:55;;;;;;;2.85;2.53;;;23.10;98.40;;;;;;6136320;23;20025;-86
2021/06/26 14:20:26;;;;;;;3.60;2.58;;;23.10;98.50;;;;;;6113691;23;20017;-88
2021/06/26 14:22:58;;;;;;;3.92;2.50;;;23.10;98.80;;;;;;6126263;23;20738;-85
2021/06/26 14:29:00;;;;;;;3.65;2.83;;;23.20;99.60;;;;;;6176684;23;20062;-88
2021/06/26 14:32:43;;;;;;;2.58;2.38;;;23.10;99.90;;;;;;6002855;23;20027;-90
2021/06/26 14:35:18;;;;;;;2.70;2.50;;;23.10;99.90;;;;;;5994831;23;20031;-86
2021/06/26 14:37:52;;;;;;;2.08;1.92;;;23.10;96.50;;;;;;5992488;23;20034;-88
2021/06/26 14:40:24;;;;;;;3.75;2.42;;;23.10;95.90;;;;;;6090658;23;20037;-87
2021/06/26 14:43:03;;;;;;;2.40;2.20;;;23.00;98.10;;;;;;6103830;23;20322;-89
2021/06/26 14:53:04;;;;;;;2.85;2.03;;;22.90;99.90;;;;;;6182866;23;20033;-89
2021/06/26 15:16:45;;;;;;;2.70;2.50;;;23.00;99.50;;;;;;6176351;23;20239;31
2021/06/26 15:19:20;;;;;;;4.60;3.03;;;23.10;99.30;;;;;;6047811;23;20043;-85
2021/06/26 15:21:49;;;;;;;2.40;2.20;;;23.00;97.20;;;;;;6054503;23;20026;-89
2021/06/26 15:24:29;;;;;;;2.50;2.25;;;23.00;99.90;;;;;;6071603;23;20019;-87
2021/06/26 15:27:13;;;;;;;2.53;2.25;;;23.00;97.30;;;;;;6127530;23;21277;-87
2021/06/26 15:30:15;;;;;;;2.30;2.08;;;23.10;98.70;;;;;;6145856;23;20490;-88
2021/06/26 15:33:09;;;;;;;3.45;2.97;;;23.10;98.30;;;;;;6133421;23;20044;-85
2021/06/26 15:36:17;;;;;;;;;;;;;;;;;;;;;
2021/06/26 15:39:37;;;;;;;4.82;2.95;;;23.00;98.50;;;;;;6123496;23;20024;-84
2021/06/26 15:42:18;;;;;;;3.05;2.85;;;22.90;97.30;;;;;;6143336;23;20028;-87
2021/06/26 15:44:55;;;;;;;2.42;2.22;;;22.70;98.20;;;;;;6134522;23;20032;-89
2021/06/26 15:47:23;;;;;;;2.72;2.42;;;22.70;98.30;;;;;;6156875;23;20017;-84
2021/06/26 15:49:52;;;;;;;2.92;2.67;;;22.80;98.10;;;;;;6156785;23;20336;-86
2021/06/26 15:52:28;;;;;;;2.33;2.13;;;22.90;98.80;;;;;;6131630;22;20381;-88
2021/06/26 15:54:57;;;;;;;3.05;2.50;;;23.10;98.20;;;;;;6194083;23;20020;-91
2021/06/26 15:57:42;;;;;;;4.05;3.10;;;23.00;98.80;;;;;;6109390;23;20035;-87
2021/06/26 16:00:40;;;;;;;2.38;2.15;;;23.00;98.60;;;;;;6195024;23;20345;-85
2021/06/26 16:03:23;;;;;;;5.78;4.50;;;23.10;99.10;;;;;;6129836;23;20043;-83
2021/06/26 16:10:42;;;;;;;3.80;3.50;;;23.20;96.20;;;;;;6089974;23;20051;-85
2021/06/26 16:14:06;;;;;;;2.92;2.20;;;23.30;96.10;;;;;;6136007;23;20036;-85
2021/06/26 16:16:59;;;;;;;4.35;3.03;;;23.30;98.80;;;;;;6188456;23;20028;-82
2021/06/26 16:19:41;;;;;;;2.10;1.92;;;23.40;96.20;;;;;;6181822;23;20016;-83
2021/06/26 16:22:19;;;;;;;3.17;2.70;;;23.40;96.70;;;;;;6179926;23;20352;-81
2021/06/26 16:24:47;;;;;;;2.60;1.85;;;23.30;95.70;;;;;;6181219;23;20029;-86
2021/06/26 16:27:52;;;;;;;2.83;2.63;;;23.10;96.20;;;;;;6168383;23;20024;-85
2021/06/26 16:30:51;;;;;;;4.35;2.70;;;23.10;96.50;;;;;;6149557;23;20072;-82
2021/06/26 16:33:19;;;;;;;2.40;2.20;;;22.90;96.10;;;;;;6159771;23;20460;-83
2021/06/26 16:36:20;;;;;;;2.20;2.00;;;22.80;94.70;;;;;;6014231;23;20019;-84
2021/06/26 16:46:18;;;;;;;2.38;2.13;;;22.90;96.90;;;;;;6175836;23;20028;-88
2021/06/26 16:48:46;;;;;;;3.40;1.98;;;22.90;94.50;;;;;;6130838;23;20021;-89